Time;durP1;ratioP1;P1;durP2;ratioP2;P2;SDS_P1;SDS_P2;PMS_P1;PMS_P2;Temp;Humidity;BMP_temperature;BMP_pressure;BME280_temperature;BME280_humidity;BME280_pressure;Samples;Min_cycle;Max_cycle;Signal;HPM_P1;HPM_P2
2020/12/22 00:04:28;;;;;;;4.95;3.70;;;;;;;11.90;100.00;100604.41;10372197;28;20291;-75
2020/12/22 00:09:29;;;;;;;8.45;3.88;;;;;;;12.07;100.00;100636.31;10354650;28;20113;-74
2020/12/22 00:14:29;;;;;;;7.43;3.42;;;;;;;11.73;100.00;100563.22;10367785;28;20046;-77
2020/12/22 00:19:29;;;;;;;5.93;3.50;;;;;;;12.07;100.00;100620.06;10352453;28;20038;-77
2020/12/22 00:24:30;;;;;;;13.15;6.03;;;;;;;11.87;100.00;100567.22;10351419;28;20048;-76
2020/12/22 00:29:31;;;;;;;6.78;3.58;;;;;;;12.12;100.00;100622.41;10363125;28;20045;-76
2020/12/22 00:34:32;;;;;;;7.07;3.40;;;;;;;12.14;100.00;100597.66;10363167;28;20133;-75
2020/12/22 00:39:33;;;;;;;6.50;2.90;;;;;;;11.90;100.00;100582.75;10342593;28;20037;-77
2020/12/22 00:44:33;;;;;;;10.27;2.97;;;;;;;12.16;100.00;100611.59;10368018;28;20061;-75
2020/12/22 00:49:34;;;;;;;4.25;2.20;;;;;;;11.88;100.00;100582.38;10361834;28;20093;-75
2020/12/22 00:54:34;;;;;;;5.47;1.95;;;;;;;11.93;100.00;100554.94;10367181;28;20490;-76
2020/12/22 00:59:35;;;;;;;5.32;2.03;;;;;;;11.45;100.00;100508.84;10369063;28;20048;-76
2020/12/22 01:04:36;;;;;;;3.03;1.90;;;;;;;11.89;100.00;100548.69;10354040;28;20056;-76
2020/12/22 01:09:36;;;;;;;5.20;1.98;;;;;;;12.22;100.00;100613.59;10338801;28;20046;-76
2020/12/22 01:14:39;;;;;;;2.13;1.33;;;;;;;11.91;100.00;100568.06;10327426;28;20172;-76
2020/12/22 01:19:39;;;;;;;3.50;2.25;;;;;;;12.06;100.00;100569.72;10368934;28;20383;-75
2020/12/22 01:24:40;;;;;;;6.72;2.90;;;;;;;12.21;100.00;100597.72;10367512;28;20037;-75
2020/12/22 01:29:40;;;;;;;8.23;3.00;;;;;;;12.37;100.00;100638.09;10372497;28;20037;-75
2020/12/22 01:34:41;;;;;;;7.88;3.40;;;;;;;12.08;100.00;100605.34;10350731;28;20049;-76
2020/12/22 01:39:41;;;;;;;5.93;3.10;;;;;;;12.35;100.00;100640.41;10359215;28;20070;-74
2020/12/22 01:44:42;;;;;;;5.75;3.38;;;;;;;12.30;100.00;100633.41;10338165;28;20050;-76
2020/12/22 01:49:42;;;;;;;7.03;3.50;;;;;;;12.35;100.00;100635.00;10345403;28;20096;-74
2020/12/22 01:54:43;;;;;;;8.18;3.47;;;;;;;11.77;100.00;100558.63;10343628;28;20049;-75
2020/12/22 01:59:43;;;;;;;6.00;1.95;;;;;;;12.27;100.00;100632.22;10362249;28;20076;-74
2020/12/22 02:04:44;;;;;;;4.88;1.90;;;;;;;12.22;100.00;100600.03;10346021;28;20076;-75
2020/12/22 02:09:46;;;;;;;3.72;1.33;;;;;;;12.38;100.00;100645.06;10361169;28;20859;-74
2020/12/22 02:14:49;;;;;;;3.13;0.70;;;;;;;12.35;100.00;100618.72;10338643;28;20341;-76
2020/12/22 02:19:49;;;;;;;4.13;0.68;;;;;;;12.40;100.00;100634.63;10358981;28;20038;-77
2020/12/22 02:24:50;;;;;;;4.82;0.85;;;;;;;12.63;100.00;100662.31;10367600;28;20041;-75
2020/12/22 02:29:50;;;;;;;5.85;0.70;;;;;;;12.72;100.00;100674.75;10344533;28;20386;-75
2020/12/22 02:34:51;;;;;;;4.20;1.27;;;;;;;12.68;100.00;100675.50;10362871;28;20042;-75
2020/12/22 02:39:51;;;;;;;5.45;1.02;;;;;;;12.78;100.00;100667.81;10342807;28;20071;-75
2020/12/22 02:44:52;;;;;;;6.82;1.00;;;;;;;12.55;100.00;100654.50;10358965;28;20058;-74
2020/12/22 02:49:52;;;;;;;7.70;1.30;;;;;;;12.77;100.00;100698.78;10365284;28;20042;-74
2020/12/22 02:54:53;;;;;;;6.97;1.60;;;;;;;12.79;100.00;100701.91;10343494;28;20491;-75
2020/12/22 02:59:53;;;;;;;4.65;1.27;;;;;;;12.66;100.00;100699.50;10365300;28;20057;-74
2020/12/22 03:04:53;;;;;;;5.47;1.23;;;;;;;12.64;100.00;100712.66;10329389;28;20064;-74
2020/12/22 03:09:54;;;;;;;6.57;1.85;;;;;;;12.43;100.00;100682.69;10349494;28;20034;-75
2020/12/22 03:14:54;;;;;;;7.47;2.10;;;;;;;12.06;100.00;100640.16;10375361;28;20418;-74
2020/12/22 03:19:55;;;;;;;4.75;1.60;;;;;;;12.36;100.00;100690.75;10344427;28;20478;-74
2020/12/22 03:24:55;;;;;;;8.15;1.40;;;;;;;12.33;100.00;100681.44;10362850;28;20045;-76
2020/12/22 03:29:56;;;;;;;6.93;1.85;;;;;;;12.51;100.00;100719.56;10366283;28;20095;-74
2020/12/22 03:34:57;;;;;;;5.00;1.48;;;;;;;12.48;100.00;100709.44;10334652;28;20046;-74
2020/12/22 03:40:00;;;;;;;5.72;1.60;;;;;;;12.69;100.00;100725.88;10362862;28;20072;-74
2020/12/22 03:45:00;;;;;;;6.10;1.60;;;;;;;11.93;100.00;100641.59;10328054;28;20554;-74
2020/12/22 03:50:02;;;;;;;4.80;1.40;;;;;;;12.29;100.00;100712.38;10346218;28;20037;-76
2020/12/22 03:55:03;;;;;;;4.40;1.42;;;;;;;12.29;100.00;100729.41;10380139;28;20506;-74
2020/12/22 04:00:07;;;;;;;3.83;1.88;;;;;;;12.46;100.00;100753.22;10367377;28;20046;-74
2020/12/22 04:05:08;;;;;;;4.22;1.60;;;;;;;12.47;100.00;100760.19;10367197;28;20037;-74
2020/12/22 04:10:08;;;;;;;5.72;1.75;;;;;;;12.22;100.00;100751.03;10366999;28;20079;-74
2020/12/22 04:15:12;;;;;;;10.38;2.30;;;;;;;12.24;100.00;100765.75;10366736;28;20039;-74
2020/12/22 04:20:13;;;;;;;7.40;2.53;;;;;;;12.13;100.00;100770.28;10349479;28;20049;-74
2020/12/22 04:25:13;;;;;;;8.30;2.75;;;;;;;12.20;100.00;100775.78;10354460;28;20069;-74
2020/12/22 04:30:14;;;;;;;9.25;3.53;;;;;;;12.09;100.00;100764.06;10340720;28;20813;-75
2020/12/22 04:35:14;;;;;;;7.95;2.63;;;;;;;12.14;100.00;100788.13;10363828;28;20624;-76
2020/12/22 04:40:15;;;;;;;6.15;2.03;;;;;;;12.08;100.00;100767.91;10370526;28;20046;-75
2020/12/22 04:45:16;;;;;;;11.02;2.22;;;;;;;11.96;100.00;100765.47;10367355;28;20036;-75
2020/12/22 04:50:16;;;;;;;6.43;1.23;;;;;;;12.04;100.00;100805.00;10352553;28;20057;-76
2020/12/22 04:55:18;;;;;;;10.38;1.35;;;;;;;12.11;100.00;100804.31;10345847;28;20438;-76
2020/12/22 05:00:18;;;;;;;7.45;1.60;;;;;;;12.10;100.00;100803.56;10347339;28;20393;-74
2020/12/22 05:05:20;;;;;;;5.80;1.27;;;;;;;11.70;100.00;100753.53;10352320;28;20057;-78
2020/12/22 05:10:20;;;;;;;6.82;2.30;;;;;;;12.02;100.00;100818.19;10364257;28;20136;-75
2020/12/22 05:15:20;;;;;;;7.68;1.88;;;;;;;11.92;100.00;100807.97;10345944;28;20540;-74
2020/12/22 05:20:21;;;;;;;10.10;1.90;;;;;;;12.08;100.00;100832.94;10349339;28;20049;-73
2020/12/22 05:25:22;;;;;;;7.22;1.30;;;;;;;11.70;100.00;100769.78;10314584;28;20046;-74
2020/12/22 05:30:22;;;;;;;8.82;1.30;;;;;;;12.10;100.00;100838.78;10350016;28;20120;-75
2020/12/22 05:35:28;;;;;;;10.63;1.75;;;;;;;11.97;100.00;100859.13;10303764;28;20054;-79
2020/12/22 05:40:28;;;;;;;8.50;1.90;;;;;;;11.61;100.00;100847.78;10354313;28;20107;-77
2020/12/22 05:45:31;;;;;;;9.27;2.63;;;;;;;11.90;100.00;100870.66;10342155;28;20038;-73
2020/12/22 05:50:33;;;;;;;11.05;2.92;;;;;;;11.88;100.00;100888.44;10348650;28;20120;-77
2020/12/22 05:55:34;;;;;;;10.38;4.25;;;;;;;11.67;100.00;100857.16;10339664;28;20100;-77
2020/12/22 06:00:36;;;;;;;18.05;6.03;;;;;;;11.64;100.00;100847.03;10366156;28;20117;-79
2020/12/22 06:05:39;;;;;;;15.52;5.13;;;;;;;11.92;100.00;100883.81;10330995;28;20138;-76
2020/12/22 06:10:40;;;;;;;;;;;;;;;11.83;100.00;100898.41;10345538;28;20076;-74
2020/12/22 06:15:41;;;;;;;20.55;4.07;;;;;;;11.47;100.00;100863.81;10327899;28;19909;-75
2020/12/22 06:20:41;;;;;;;16.60;3.72;;;;;;;11.68;100.00;100912.88;10337327;28;20038;-76
2020/12/22 06:25:41;;;;;;;16.25;4.28;;;;;;;10.99;100.00;100802.81;10323486;28;20053;-76
2020/12/22 06:30:42;;;;;;;23.48;5.53;;;;;;;11.69;100.00;100930.69;10332533;28;20034;-76
2020/12/22 06:35:59;;;;;;;23.67;4.53;;;;;;;11.45;100.00;100904.00;10341610;28;20039;-76
2020/12/22 06:40:59;;;;;;;28.73;4.97;;;;;;;11.58;100.00;100918.91;10307194;28;21037;-79
2020/12/22 06:45:59;;;;;;;25.90;4.18;;;;;;;11.52;100.00;100887.88;10309378;28;20046;-74
2020/12/22 06:51:20;;;;;;;32.22;4.60;;;;;;;11.70;99.96;100916.00;10315374;28;20054;-76
2020/12/22 06:56:42;;;;;;;24.45;4.57;;;;;;;11.81;98.46;100949.44;10337794;28;20050;-76
2020/12/22 07:01:46;;;;;;;17.92;3.40;;;;;;;11.62;95.90;100914.34;10340724;28;20042;-81
2020/12/22 07:06:56;;;;;;;17.45;3.08;;;;;;;11.82;95.66;100945.56;10327311;28;20418;-78
2020/12/22 07:12:10;;;;;;;19.50;3.63;;;;;;;11.52;95.92;100925.78;10344585;28;20054;-78
2020/12/22 07:17:15;;;;;;;15.77;3.35;;;;;;;11.80;96.46;100974.94;10348817;28;20108;-76
2020/12/22 07:22:16;;;;;;;17.48;2.60;;;;;;;11.46;96.33;100921.81;10328732;28;20037;-75
2020/12/22 07:27:17;;;;;;;13.73;2.80;;;;;;;11.61;96.08;100956.09;10309173;28;20167;-79
2020/12/22 07:32:18;;;;;;;18.65;3.72;;;;;;;11.79;95.94;100989.66;10334276;28;20046;-77
2020/12/22 07:37:18;;;;;;;22.35;3.40;;;;;;;11.79;96.68;100983.44;10295870;28;20066;-80
2020/12/22 07:42:19;;;;;;;20.20;4.28;;;;;;;11.71;97.39;100987.97;10331377;28;20038;-75
2020/12/22 07:47:28;;;;;;;16.33;4.35;;;;;;;11.80;97.55;101023.69;10343488;28;20052;-77
2020/12/22 07:52:28;;;;;;;18.92;4.43;;;;;;;11.92;97.88;101030.09;10342118;28;20542;-80
2020/12/22 07:57:32;;;;;;;14.13;3.58;;;;;;;11.61;97.16;101000.19;10349575;28;20108;-76
2020/12/22 08:02:33;;;;;;;14.77;3.40;;;;;;;11.87;96.51;101043.94;10347944;28;20050;-74
2020/12/22 08:07:33;;;;;;;22.45;5.18;;;;;;;11.70;96.27;101024.31;10329040;28;20503;-78
2020/12/22 08:12:34;;;;;;;17.55;3.40;;;;;;;11.78;95.08;101028.72;10331580;28;20049;-77
2020/12/22 08:17:44;;;;;;;10.55;2.75;;;;;;;11.92;94.80;101084.28;10340372;28;20117;-76
2020/12/22 08:22:45;;;;;;;14.50;3.42;;;;;;;11.18;95.08;100998.69;10341227;28;20116;-80
2020/12/22 08:27:46;;;;;;;13.93;2.72;;;;;;;11.59;94.55;101070.19;10328133;28;20100;-81
2020/12/22 08:32:46;;;;;;;13.18;2.40;;;;;;;11.76;93.95;101120.38;10331711;28;20224;-80
2020/12/22 08:37:47;;;;;;;13.25;2.20;;;;;;;11.68;94.54;101113.25;10327919;28;20076;-81
2020/12/22 08:42:48;;;;;;;13.55;2.78;;;;;;;11.52;93.97;101082.78;10340515;28;20034;-80
2020/12/22 08:47:52;;;;;;;14.73;3.60;;;;;;;11.70;94.87;101116.38;10329486;28;20046;-79
2020/12/22 08:52:53;;;;;;;14.73;3.78;;;;;;;11.58;95.43;101108.44;10334245;28;20047;-79
2020/12/22 08:58:03;;;;;;;17.38;3.97;;;;;;;11.65;97.58;101130.22;10327359;28;20050;-78
2020/12/22 09:03:03;;;;;;;16.05;5.38;;;;;;;11.70;99.63;101138.06;10331123;28;20034;-76
2020/12/22 09:08:05;;;;;;;18.33;4.03;;;;;;;11.72;99.29;101135.00;10343601;28;20826;-77
2020/12/22 09:13:14;;;;;;;16.70;3.63;;;;;;;11.52;99.53;101120.69;10338385;28;20045;-77
2020/12/22 09:18:15;;;;;;;14.95;3.30;;;;;;;11.72;98.90;101152.03;10332640;28;20041;-78
2020/12/22 09:23:15;;;;;;;18.23;3.33;;;;;;;11.16;97.83;101065.88;10347508;28;20473;-83
2020/12/22 09:28:20;;;;;;;14.05;3.20;;;;;;;11.79;97.23;101157.56;10345052;28;20036;-77
2020/12/22 09:33:21;;;;;;;14.52;3.47;;;;;;;11.54;96.36;101153.59;10327996;28;20592;-75
2020/12/22 09:38:21;;;;;;;18.48;2.90;;;;;;;11.64;96.08;101161.13;10324624;28;20057;-75
2020/12/22 09:43:21;;;;;;;12.15;2.63;;;;;;;11.91;95.39;101201.91;10334658;28;20125;-74
2020/12/22 09:48:22;;;;;;;15.68;2.20;;;;;;;11.51;96.38;101184.88;10331375;28;20126;-75
2020/12/22 09:53:22;;;;;;;14.68;2.60;;;;;;;11.72;96.65;101227.84;10328714;28;20038;-76
2020/12/22 09:58:23;;;;;;;10.55;2.47;;;;;;;11.27;98.11;101202.19;10338593;28;20038;-75
2020/12/22 10:03:23;;;;;;;13.35;2.33;;;;;;;10.94;99.11;101173.66;10346912;28;20080;-76
2020/12/22 10:08:24;;;;;;;14.77;2.80;;;;;;;11.30;100.00;101254.81;10337572;28;20099;-77
2020/12/22 10:13:24;;;;;;;24.00;4.47;;;;;;;11.32;100.00;101261.44;10344306;28;20045;-77
2020/12/22 10:18:25;;;;;;;12.10;3.20;;;;;;;11.30;100.00;101261.00;10349348;28;20041;-78
2020/12/22 10:23:25;;;;;;;16.60;3.63;;;;;;;11.26;100.00;101254.72;10330791;28;20143;-76
2020/12/22 10:28:26;;;;;;;16.45;3.05;;;;;;;11.11;100.00;101239.34;10331231;28;20053;-78
2020/12/22 10:33:27;;;;;;;24.35;3.65;;;;;;;11.09;100.00;101230.78;10342740;28;20033;-75
2020/12/22 10:38:30;;;;;;;25.85;3.80;;;;;;;11.17;100.00;101240.63;10316327;28;20034;-79
2020/12/22 10:43:30;;;;;;;;;;;;;;;11.41;100.00;101283.69;10348200;28;20479;-79
2020/12/22 10:48:31;;;;;;;27.70;4.47;;;;;;;11.29;100.00;101270.28;10332689;28;19928;-77
2020/12/22 10:53:33;;;;;;;28.30;4.97;;;;;;;11.28;100.00;101268.69;10346915;28;20053;-78
2020/12/22 10:58:34;;;;;;;;;;;;;;;11.34;100.00;101288.19;10349201;28;20524;-75
2020/12/22 11:03:34;;;;;;;25.67;5.00;;;;;;;11.08;100.00;101275.22;10326810;28;19925;-76
2020/12/22 11:08:38;;;;;;;16.75;3.78;;;;;;;11.19;100.00;101303.28;10339709;28;20301;-78
2020/12/22 11:13:39;;;;;;;16.95;4.28;;;;;;;11.06;100.00;101309.94;10348954;28;20069;-77
2020/12/22 11:18:40;;;;;;;29.23;4.75;;;;;;;10.95;100.00;101321.28;10345750;28;20052;-78
2020/12/22 11:23:40;;;;;;;22.30;5.57;;;;;;;10.68;100.00;101278.91;10319739;28;20050;-77
2020/12/22 11:28:41;;;;;;;15.48;3.83;;;;;;;10.82;100.00;101327.94;10333450;28;20046;-78
2020/12/22 11:33:41;;;;;;;19.67;3.65;;;;;;;10.44;100.00;101286.03;10346769;28;20049;-78
2020/12/22 11:38:42;;;;;;;10.95;3.80;;;;;;;10.69;100.00;101329.13;10324609;28;20042;-77
2020/12/22 11:43:43;;;;;;;8.57;3.88;;;;;;;10.78;100.00;101321.66;10304377;28;20034;-78
2020/12/22 11:48:43;;;;;;;13.52;4.15;;;;;;;10.32;100.00;101277.97;10339019;28;20470;-76
2020/12/22 11:53:44;;;;;;;13.70;5.18;;;;;;;9.91;100.00;101215.16;10343826;28;20053;-75
2020/12/22 11:58:44;;;;;;;15.05;4.28;;;;;;;10.37;100.00;101307.44;10351976;28;20088;-75
2020/12/22 12:03:47;;;;;;;12.88;4.32;;;;;;;10.57;100.00;101333.47;10340659;28;20034;-75
2020/12/22 12:08:47;;;;;;;;;;;;;;;10.66;100.00;101346.06;10348997;28;20445;-77
2020/12/22 12:13:54;;;;;;;14.95;4.28;;;;;;;10.31;100.00;101298.03;10332614;28;19938;-82
2020/12/22 12:18:54;;;;;;;14.82;4.75;;;;;;;10.41;100.00;101329.97;10339802;28;20124;-78
2020/12/22 12:23:55;;;;;;;19.13;5.65;;;;;;;10.49;100.00;101347.94;10333341;28;20507;-77
2020/12/22 12:28:55;;;;;;;11.80;4.32;;;;;;;9.68;100.00;101218.38;10345161;28;20044;-79
2020/12/22 12:33:56;;;;;;;15.82;4.95;;;;;;;10.47;100.00;101344.81;10327184;28;20042;-77
2020/12/22 12:38:56;;;;;;;12.70;3.75;;;;;;;10.40;100.00;101333.81;10349732;28;20049;-78
2020/12/22 12:43:57;;;;;;;12.63;4.05;;;;;;;10.45;100.00;101352.47;10314482;28;20394;-77
2020/12/22 12:48:57;;;;;;;12.25;4.30;;;;;;;10.39;100.00;101353.06;10327049;28;20522;-78
2020/12/22 12:53:58;;;;;;;13.50;4.50;;;;;;;10.10;100.00;101331.41;10317756;28;20076;-80
2020/12/22 12:58:58;;;;;;;8.35;3.45;;;;;;;10.18;100.00;101323.50;10327415;28;20050;-77
2020/12/22 13:03:59;;;;;;;7.55;3.10;;;;;;;10.39;100.00;101359.25;10324709;28;20121;-76
2020/12/22 13:08:59;;;;;;;10.35;3.25;;;;;;;10.08;100.00;101295.84;10337206;28;20058;-76
2020/12/22 13:14:00;;;;;;;18.08;3.63;;;;;;;10.61;100.00;101359.84;10352239;28;20545;-76
2020/12/22 13:19:00;;;;;;;9.73;2.97;;;;;;;10.62;100.00;101358.69;10333062;28;20076;-76
2020/12/22 13:24:01;;;;;;;11.27;3.00;;;;;;;10.42;99.81;101326.16;10313812;28;20041;-76
2020/12/22 13:29:01;;;;;;;8.88;2.50;;;;;;;10.45;99.27;101330.84;10350396;28;20100;-77
2020/12/22 13:34:02;;;;;;;7.60;2.42;;;;;;;10.35;99.55;101315.16;10324925;28;20041;-77
2020/12/22 13:39:03;;;;;;;8.80;2.33;;;;;;;10.25;100.00;101299.38;10329042;28;20045;-77
2020/12/22 13:44:03;;;;;;;9.60;3.22;;;;;;;10.28;100.00;101306.81;10329820;28;20471;-78
2020/12/22 13:49:04;;;;;;;8.05;3.35;;;;;;;10.57;99.70;101349.69;10345511;28;20052;-77
2020/12/22 13:54:05;;;;;;;9.32;2.60;;;;;;;10.67;100.00;101342.22;10316311;28;20046;-79
2020/12/22 13:59:05;;;;;;;12.02;4.03;;;;;;;10.24;100.00;101281.63;10311775;28;20064;-79
2020/12/22 14:04:06;;;;;;;10.85;3.20;;;;;;;10.44;99.91;101313.06;10346860;28;20034;-76
2020/12/22 14:09:06;;;;;;;13.02;4.72;;;;;;;10.69;100.00;101348.06;10345274;28;20039;-76
2020/12/22 14:14:07;;;;;;;11.43;3.83;;;;;;;10.36;100.00;101316.72;10342989;28;21123;-79
2020/12/22 14:19:07;;;;;;;20.38;3.90;;;;;;;10.35;100.00;101320.56;10301648;28;20597;-77
2020/12/22 14:24:08;;;;;;;15.95;3.75;;;;;;;10.66;100.00;101383.91;10319879;28;20042;-78
2020/12/22 14:29:08;;;;;;;10.52;3.65;;;;;;;10.69;100.00;101383.22;10339888;28;20402;-78
2020/12/22 14:34:09;;;;;;;9.07;4.00;;;;;;;10.67;100.00;101390.88;10322661;28;20438;-80
2020/12/22 14:39:09;;;;;;;7.13;4.18;;;;;;;10.67;100.00;101385.47;10339336;28;20054;-78
2020/12/22 14:44:10;;;;;;;12.20;4.07;;;;;;;10.54;100.00;101377.44;10340193;28;20073;-78
2020/12/22 14:49:13;;;;;;;9.85;4.85;;;;;;;10.62;100.00;101399.25;10337558;28;20045;-77
2020/12/22 14:54:13;;;;;;;10.07;5.03;;;;;;;10.29;100.00;101332.72;10329332;28;20085;-77
2020/12/22 14:59:14;;;;;;;12.40;5.40;;;;;;;10.55;100.00;101379.00;10342487;28;20039;-76
2020/12/22 15:04:14;;;;;;;13.98;5.95;;;;;;;10.36;100.00;101354.53;10335901;28;20157;-76
2020/12/22 15:09:15;;;;;;;12.77;4.90;;;;;;;10.33;100.00;101339.03;10352904;28;20052;-77
2020/12/22 15:14:15;;;;;;;11.95;4.72;;;;;;;10.28;100.00;101363.56;10349820;28;20369;-80
2020/12/22 15:19:16;;;;;;;12.10;5.00;;;;;;;10.52;100.00;101390.50;10350613;28;20126;-77
2020/12/22 15:24:17;;;;;;;12.57;4.68;;;;;;;10.41;100.00;101384.00;10331323;28;20125;-78
2020/12/22 15:29:18;;;;;;;14.65;5.72;;;;;;;10.31;100.00;101379.88;10352249;28;20045;-77
2020/12/22 15:34:18;;;;;;;19.83;7.13;;;;;;;10.26;100.00;101379.34;10331208;28;20033;-77
2020/12/22 15:39:18;;;;;;;39.65;25.55;;;;;;;10.32;100.00;101402.28;10315015;28;20507;-77
2020/12/22 15:44:19;;;;;;;21.63;8.70;;;;;;;10.27;100.00;101389.00;10290989;28;20075;-77
2020/12/22 15:49:20;;;;;;;18.67;8.07;;;;;;;10.27;100.00;101378.19;10332376;28;20037;-76
2020/12/22 15:54:21;;;;;;;22.98;7.13;;;;;;;10.28;100.00;101390.59;10344541;28;20052;-76
2020/12/22 15:59:22;;;;;;;12.15;6.43;;;;;;;10.03;100.00;101363.63;10339632;28;20517;-79
2020/12/22 16:04:24;;;;;;;12.93;6.53;;;;;;;10.18;100.00;101396.44;10343157;28;20038;-78
2020/12/22 16:09:25;;;;;;;14.60;8.52;;;;;;;9.82;100.00;101358.41;10316421;28;20046;-75
2020/12/22 16:14:26;;;;;;;15.02;6.78;;;;;;;10.06;100.00;101400.75;10343919;28;20046;-79
2020/12/22 16:19:29;;;;;;;49.30;31.88;;;;;;;9.77;100.00;101374.06;10339508;28;20148;-80
2020/12/22 16:24:30;;;;;;;30.65;18.45;;;;;;;9.25;100.00;101275.72;10327370;28;20048;-79
2020/12/22 16:29:30;;;;;;;18.45;9.45;;;;;;;9.89;100.00;101364.00;10324837;28;20073;-80
2020/12/22 16:34:31;;;;;;;16.65;8.80;;;;;;;10.11;100.00;101370.81;10326269;28;20041;-78
2020/12/22 16:39:31;;;;;;;24.15;11.95;;;;;;;9.94;100.00;101344.06;10347420;28;20105;-78
2020/12/22 16:44:32;;;;;;;21.42;12.68;;;;;;;9.90;100.00;101338.59;10344894;28;20054;-77
2020/12/22 16:49:33;;;;;;;19.55;8.65;;;;;;;10.09;100.00;101370.38;10327517;28;20058;-78
2020/12/22 16:54:33;;;;;;;22.50;9.23;;;;;;;9.81;100.00;101323.66;10326352;28;20050;-78
2020/12/22 16:59:33;;;;;;;22.60;10.32;;;;;;;10.06;100.00;101362.94;10323726;28;20042;-76
2020/12/22 17:04:34;;;;;;;21.33;9.52;;;;;;;9.83;100.00;101329.47;10342857;28;20046;-77
2020/12/22 17:09:34;;;;;;;20.95;10.90;;;;;;;9.76;100.00;101321.16;10347914;28;20489;-78
2020/12/22 17:14:35;;;;;;;18.73;11.50;;;;;;;9.65;100.00;101327.06;10328354;28;20713;-76
2020/12/22 17:19:35;;;;;;;18.23;11.18;;;;;;;9.95;100.00;101356.47;10347068;28;20046;-76
2020/12/22 17:24:36;;;;;;;15.50;10.50;;;;;;;9.81;100.00;101323.66;10329594;28;20061;-78
2020/12/22 17:29:36;;;;;;;23.77;12.45;;;;;;;10.01;100.00;101360.47;10347450;28;20037;-78
2020/12/22 17:34:37;;;;;;;27.73;11.18;;;;;;;9.71;100.00;101309.50;10347281;28;20054;-78
2020/12/22 17:39:37;;;;;;;22.23;11.85;;;;;;;10.06;100.00;101373.75;10315005;28;20048;-75
2020/12/22 17:44:38;;;;;;;30.13;12.98;;;;;;;10.04;100.00;101370.63;10347502;28;20049;-74
2020/12/22 17:49:39;;;;;;;22.52;12.52;;;;;;;10.09;100.00;101372.31;10345142;28;20049;-78
2020/12/22 17:54:39;;;;;;;22.55;11.77;;;;;;;10.06;100.00;101381.84;10328753;28;20050;-80
2020/12/22 17:59:41;;;;;;;21.35;13.57;;;;;;;10.13;100.00;101389.38;10328913;28;20085;-75
2020/12/22 18:04:41;;;;;;;26.27;14.07;;;;;;;10.15;100.00;101379.78;10378931;23;20395;-77
2020/12/22 18:09:42;;;;;;;30.42;15.52;;;;;;;9.75;100.00;101315.00;10387850;28;20045;-78
2020/12/22 18:14:42;;;;;;;27.42;15.45;;;;;;;10.03;100.00;101362.84;10384219;28;20041;-77
2020/12/22 18:19:43;;;;;;;27.75;16.05;;;;;;;10.14;100.00;101375.53;10383623;28;20095;-78
2020/12/22 18:24:45;;;;;;;41.53;19.67;;;;;;;10.04;100.00;101365.22;10383572;28;20105;-78
2020/12/22 18:29:46;;;;;;;35.50;18.35;;;;;;;9.79;100.00;101296.22;10375446;28;20136;-76
2020/12/22 18:34:46;;;;;;;37.60;18.50;;;;;;;10.12;100.00;101350.78;10368383;28;20042;-76
2020/12/22 18:39:46;;;;;;;34.00;18.55;;;;;;;9.93;100.00;101320.91;10380553;28;20069;-76
2020/12/22 18:44:47;;;;;;;33.08;17.92;;;;;;;10.15;100.00;101355.47;10387164;28;20483;-77
2020/12/22 18:49:47;;;;;;;40.05;18.85;;;;;;;10.10;100.00;101353.03;10385085;28;20040;-77
2020/12/22 18:54:48;;;;;;;34.30;19.63;;;;;;;10.15;100.00;101363.59;10377307;28;20041;-77
2020/12/22 18:59:52;;;;;;;41.70;18.33;;;;;;;10.00;100.00;101331.91;10385559;28;20061;-78
2020/12/22 19:04:53;;;;;;;33.03;17.63;;;;;;;10.16;100.00;101362.47;10347593;28;20061;-76
2020/12/22 19:09:53;;;;;;;33.20;18.08;;;;;;;9.84;100.00;101314.84;10344688;28;20073;-76
2020/12/22 19:14:54;;;;;;;28.05;16.25;;;;;;;9.69;100.00;101306.34;10338059;28;20973;-76
2020/12/22 19:19:54;;;;;;;32.13;17.88;;;;;;;9.87;100.00;101317.66;10321882;28;20030;-77
2020/12/22 19:24:55;;;;;;;32.03;17.25;;;;;;;10.20;100.00;101372.59;10306250;28;20041;-77
2020/12/22 19:29:55;;;;;;;30.55;17.80;;;;;;;9.59;100.00;101270.94;10323465;28;20100;-78
2020/12/22 19:34:55;;;;;;;51.90;26.33;;;;;;;10.19;100.00;101357.50;10323334;28;20068;-77
2020/12/22 19:39:56;;;;;;;45.65;22.98;;;;;;;9.62;100.00;101273.75;10315818;28;20137;-76
2020/12/22 19:44:56;;;;;;;40.47;21.83;;;;;;;10.15;100.00;101354.69;10344929;28;20132;-75
2020/12/22 19:49:57;;;;;;;42.60;21.38;;;;;;;9.99;100.00;101330.31;10345966;28;20061;-77
2020/12/22 19:54:58;;;;;;;39.63;18.40;;;;;;;10.08;100.00;101339.06;10315886;28;20046;-77
2020/12/22 19:59:58;;;;;;;37.60;19.10;;;;;;;9.99;100.00;101324.91;10305381;28;20054;-76
2020/12/22 20:04:59;;;;;;;37.83;19.98;;;;;;;10.26;100.00;101349.59;10391862;28;20053;-77
2020/12/22 20:09:59;;;;;;;45.88;21.73;;;;;;;10.19;100.00;101338.59;10389550;28;20091;-77
2020/12/22 20:15:00;;;;;;;42.97;20.33;;;;;;;9.96;100.00;101304.00;10392082;28;20048;-77
2020/12/22 20:20:01;;;;;;;40.58;20.38;;;;;;;10.30;100.00;101350.50;10390103;28;20639;-77
2020/12/22 20:25:01;;;;;;;44.25;21.23;;;;;;;10.32;100.00;101337.44;10389357;28;20709;-76
2020/12/22 20:30:04;;;;;;;44.75;23.50;;;;;;;10.04;100.00;101289.59;10390890;28;20057;-76
2020/12/22 20:35:04;;;;;;;52.08;25.88;;;;;;;10.24;100.00;101314.03;10385871;28;20178;-77
2020/12/22 20:40:05;;;;;;;58.85;26.40;;;;;;;10.19;100.00;101304.25;10389462;28;20052;-77
2020/12/22 20:45:05;;;;;;;60.45;29.40;;;;;;;9.80;100.00;101246.47;10381533;28;20551;-76
2020/12/22 20:50:06;;;;;;;55.25;26.98;;;;;;;10.24;100.00;101330.25;10389939;28;20067;-77
2020/12/22 20:55:06;;;;;;;70.22;30.27;;;;;;;10.34;100.00;101318.97;10383478;28;20057;-77
2020/12/22 21:00:07;;;;;;;56.60;27.17;;;;;;;10.45;100.00;101336.25;10387653;28;20049;-76
2020/12/22 21:05:08;;;;;;;60.92;29.73;;;;;;;10.62;100.00;101361.41;10371385;28;20770;-82
2020/12/22 21:10:09;;;;;;;63.08;31.30;;;;;;;10.56;100.00;101342.72;10390163;28;20095;-77
2020/12/22 21:15:10;;;;;;;57.28;28.40;;;;;;;10.55;100.00;101330.34;10386785;28;20072;-79
2020/12/22 21:20:11;;;;;;;67.45;31.17;;;;;;;10.53;100.00;101316.38;10357220;28;20053;-78
2020/12/22 21:25:11;;;;;;;58.40;29.27;;;;;;;10.74;100.00;101326.16;10370559;28;20049;-78
2020/12/22 21:30:14;;;;;;;72.57;31.17;;;;;;;10.78;100.00;101316.25;10385806;28;20049;-79
2020/12/22 21:35:14;;;;;;;62.67;29.42;;;;;;;10.75;100.00;101327.75;10382867;28;20136;-79
2020/12/22 21:40:15;;;;;;;74.25;31.63;;;;;;;10.50;100.00;101290.03;10379521;28;20045;-79
2020/12/22 21:45:15;;;;;;;73.75;30.95;;;;;;;10.41;100.00;101269.72;10386883;28;20072;-79
2020/12/22 21:50:16;;;;;;;75.65;30.92;;;;;;;10.70;100.00;101309.06;10369788;28;20106;-79
2020/12/22 21:55:16;;;;;;;72.88;31.35;;;;;;;10.85;100.00;101327.22;10363708;28;20065;-80
2020/12/22 22:00:18;;;;;;;76.38;35.17;;;;;;;10.78;100.00;101321.66;10349069;28;20095;-80
2020/12/22 22:05:19;;;;;;;90.40;37.90;;;;;;;10.75;100.00;101322.34;10348590;28;20049;-78
2020/12/22 22:10:19;;;;;;;82.25;37.58;;;;;;;10.86;100.00;101339.59;10325050;28;20041;-81
2020/12/22 22:15:20;;;;;;;82.53;41.30;;;;;;;10.80;100.00;101341.00;10343684;28;20126;-80
2020/12/22 22:20:20;;;;;;;97.72;45.10;;;;;;;10.75;100.00;101327.75;10329864;28;20088;-79
2020/12/22 22:25:20;;;;;;;80.13;39.60;;;;;;;10.51;100.00;101293.53;10347860;28;20104;-80
2020/12/22 22:30:21;;;;;;;82.65;42.35;;;;;;;10.73;100.00;101319.22;10328889;28;20100;-79
2020/12/22 22:35:21;;;;;;;75.53;39.30;;;;;;;10.34;100.00;101270.31;10315784;28;20046;-80
2020/12/22 22:40:22;;;;;;;69.35;38.08;;;;;;;10.66;100.00;101324.44;10348230;28;20073;-78